createdAt,value
2019-02-27T00:00:43.818Z,102428.06
2019-02-27T00:03:11.276Z,102424.31
2019-02-27T00:05:41.811Z,102429.31
2019-02-27T00:08:11.559Z,102423.14
2019-02-27T00:10:41.134Z,102416.95
2019-02-27T00:13:10.418Z,102416.95
2019-02-27T00:15:39.735Z,102412.92
2019-02-27T00:18:09.017Z,102417.77
2019-02-27T00:20:38.396Z,102414.60
2019-02-27T00:23:07.715Z,102405.04
2019-02-27T00:25:36.992Z,102405.04
2019-02-27T00:28:06.296Z,102399.50
2019-02-27T00:30:37.925Z,102399.75
2019-02-27T00:33:06.863Z,102399.75
2019-02-27T00:35:38.663Z,102403.52
2019-02-27T00:38:07.193Z,102395.48
2019-02-27T00:40:39.326Z,102396.85
2019-02-27T00:43:07.471Z,102394.36
2019-02-27T00:45:39.633Z,102399.53
2019-02-27T00:48:07.752Z,102394.47
2019-02-27T00:50:39.198Z,102392.13
2019-02-27T00:53:08.136Z,102389.89
2019-02-27T00:55:39.301Z,102388.67
2019-02-27T00:58:08.431Z,102384.31
2019-02-27T01:00:39.358Z,102377.62
2019-02-27T01:03:08.861Z,102377.62
2019-02-27T01:05:40.954Z,102376.02
2019-02-27T01:08:09.138Z,102373.28
2019-02-27T01:10:38.516Z,102379.86
2019-02-27T01:13:07.909Z,102372.47
2019-02-27T01:15:37.350Z,102376.25
2019-02-27T01:18:06.672Z,102371.19
2019-02-27T01:20:35.977Z,102381.69
2019-02-27T01:23:05.333Z,102371.73
2019-02-27T01:25:34.772Z,102374.05
2019-02-27T01:28:04.358Z,102372.45
2019-02-27T01:30:33.712Z,102371.00
2019-02-27T01:33:04.153Z,102372.19
2019-02-27T01:35:34.127Z,102366.88
2019-02-27T01:38:05.322Z,102361.44
2019-02-27T01:40:34.707Z,102366.40
2019-02-27T01:43:06.341Z,102356.03
2019-02-27T01:45:35.270Z,102361.46
2019-02-27T01:48:08.953Z,102354.47
2019-02-27T01:50:37.212Z,102347.66
2019-02-27T01:53:07.325Z,102349.05
2019-02-27T01:55:38.115Z,102346.78
2019-02-27T01:58:09.507Z,102342.74
2019-02-27T02:00:39.062Z,102339.36
2019-02-27T02:03:08.344Z,102335.48
2019-02-27T02:05:37.716Z,102335.67
2019-02-27T02:08:13.616Z,102329.29
2019-02-27T02:10:39.714Z,102329.20
2019-02-27T02:13:15.145Z,102318.10
2019-02-27T02:16:02.579Z,102319.20
2019-02-27T02:19:05.327Z,102313.69
2019-02-27T02:21:54.264Z,102306.34
2019-02-27T02:24:32.693Z,102303.97
2019-02-27T02:27:17.138Z,102299.30
2019-02-27T02:29:53.128Z,102307.83
2019-02-27T02:32:44.267Z,102301.90
2019-02-27T02:35:37.381Z,102299.50
2019-02-27T02:38:30.540Z,102289.86
2019-02-27T02:41:17.317Z,102291.56
2019-02-27T02:44:01.548Z,102290.45
2019-02-27T02:46:52.082Z,102278.42
2019-02-27T02:49:42.608Z,102281.73
2019-02-27T02:52:13.603Z,102277.27
2019-02-27T02:55:14.541Z,102272.31
2019-02-27T02:57:46.889Z,102271.15
2019-02-27T03:00:46.366Z,102266.33
2019-02-27T03:03:24.207Z,102268.51
2019-02-27T03:06:15.702Z,102265.31
2019-02-27T03:09:04.419Z,102262.73
2019-02-27T03:12:01.036Z,102257.48
2019-02-27T03:14:33.361Z,102254.69
2019-02-27T03:17:17.970Z,102249.11
2019-02-27T03:19:51.416Z,102247.70
2019-02-27T03:22:44.267Z,102245.73
2019-02-27T03:25:47.963Z,102239.22
2019-02-27T03:28:32.123Z,102243.78
2019-02-27T03:31:18.040Z,102249.53
2019-02-27T03:34:05.520Z,102255.52
2019-02-27T03:36:35.993Z,102252.90
2019-02-27T03:39:12.261Z,102244.61
2019-02-27T03:42:07.218Z,102240.90
2019-02-27T03:44:42.432Z,102247.19
2019-02-27T03:47:20.354Z,102245.18
2019-02-27T03:50:04.693Z,102249.72
2019-02-27T03:52:53.709Z,102247.80
2019-02-27T03:55:34.655Z,102247.48
2019-02-27T03:58:30.683Z,102236.66
2019-02-27T04:01:19.992Z,102234.39
2019-02-27T04:04:21.145Z,102237.13
2019-02-27T04:07:10.385Z,102235.30
2019-02-27T04:09:40.766Z,102232.91
2019-02-27T04:12:10.138Z,102239.75
2019-02-27T04:14:42.059Z,102243.29
2019-02-27T04:17:10.477Z,102240.59
2019-02-27T04:19:40.475Z,102245.73
2019-02-27T04:22:10.256Z,102242.80
2019-02-27T04:24:39.710Z,102247.67
2019-02-27T04:27:09.008Z,102247.67
2019-02-27T04:29:41.129Z,102239.44
2019-02-27T04:32:12.080Z,102230.84
2019-02-27T04:34:40.317Z,102228.58
2019-02-27T04:37:09.640Z,102229.23
2019-02-27T04:39:38.923Z,102226.17
2019-02-27T04:42:08.237Z,102218.22
2019-02-27T04:44:38.897Z,102223.82
2019-02-27T04:47:09.000Z,102228.35
2019-02-27T04:49:38.465Z,102213.45
2019-02-27T04:52:07.746Z,102222.55
2019-02-27T04:54:41.299Z,102217.75
2019-02-27T04:57:08.029Z,102216.08
2019-02-27T04:59:37.381Z,102208.52
2019-02-27T05:02:06.682Z,102201.74
2019-02-27T05:04:36.356Z,102194.73
2019-02-27T05:07:05.672Z,102200.56
2019-02-27T05:09:34.983Z,102203.47
2019-02-27T05:12:04.296Z,102197.20
2019-02-27T05:14:33.590Z,102194.64
2019-02-27T05:17:02.901Z,102193.78
2019-02-27T05:19:32.243Z,102195.84
2019-02-27T05:22:01.553Z,102194.81
2019-02-27T05:24:30.871Z,102192.83
2019-02-27T05:27:00.831Z,102192.15
2019-02-27T05:29:30.826Z,102192.06
2019-02-27T05:32:00.221Z,102191.48
2019-02-27T05:34:29.519Z,102197.81
2019-02-27T05:36:58.819Z,102188.66
2019-02-27T05:39:28.139Z,102189.77
2019-02-27T05:41:57.456Z,102198.67
2019-02-27T05:44:26.768Z,102200.53
2019-02-27T05:46:56.051Z,102196.41
2019-02-27T05:49:27.370Z,102198.58
2019-02-27T05:51:56.428Z,102194.26
2019-02-27T05:54:25.735Z,102192.21
2019-02-27T05:56:55.018Z,102195.82
2019-02-27T05:59:24.319Z,102196.22
2019-02-27T06:01:53.677Z,102192.20
2019-02-27T06:04:25.133Z,102195.05
2019-02-27T06:06:54.278Z,102193.66
2019-02-27T06:09:23.643Z,102191.44
2019-02-27T06:11:53.001Z,102184.06
2019-02-27T06:14:22.308Z,102188.67
2019-02-27T06:16:51.650Z,102191.14
2019-02-27T06:19:21.117Z,102192.71
2019-02-27T06:21:50.433Z,102192.84
2019-02-27T06:24:19.757Z,102183.23
2019-02-27T06:26:49.154Z,102181.93
2019-02-27T06:29:18.446Z,102189.61
2019-02-27T06:31:47.793Z,102192.41
2019-02-27T06:34:17.122Z,102189.22
2019-02-27T06:36:46.418Z,102189.44
2019-02-27T06:39:15.735Z,102182.26
2019-02-27T06:41:47.406Z,102189.52
2019-02-27T06:44:16.471Z,102195.76
2019-02-27T06:46:45.794Z,102193.10
2019-02-27T06:49:18.315Z,102200.52
2019-02-27T06:51:46.099Z,102193.59
2019-02-27T06:54:18.107Z,102195.13
2019-02-27T06:56:46.396Z,102192.38
2019-02-27T06:59:17.898Z,102186.08
2019-02-27T07:01:47.533Z,102184.53
2019-02-27T07:04:17.775Z,102171.47
2019-02-27T07:06:47.080Z,102172.14
2019-02-27T07:09:16.366Z,102160.28
2019-02-27T07:11:48.674Z,102163.04
2019-02-27T07:14:16.744Z,102157.00
2019-02-27T07:16:46.038Z,102154.12
2019-02-27T07:19:15.874Z,102156.91
2019-02-27T07:21:46.099Z,102153.59
2019-02-27T07:24:15.390Z,102156.55
2019-02-27T07:26:44.700Z,102156.63
2019-02-27T07:29:21.363Z,102156.63
2019-02-27T07:31:45.046Z,102147.78
2019-02-27T07:34:14.962Z,102156.75
2019-02-27T07:36:44.719Z,102144.58
2019-02-27T07:39:14.063Z,102144.58
2019-02-27T07:41:43.369Z,102147.25
2019-02-27T07:44:12.669Z,102146.55
2019-02-27T07:46:41.983Z,102152.52
2019-02-27T07:49:11.281Z,102133.00
2019-02-27T07:51:40.564Z,102140.77
2019-02-27T07:54:09.871Z,102134.00
2019-02-27T07:56:39.143Z,102140.77
2019-02-27T07:59:08.436Z,102140.77
2019-02-27T08:01:43.822Z,102134.80
2019-02-27T08:04:09.092Z,102131.46
2019-02-27T08:06:38.518Z,102130.17
2019-02-27T08:09:07.976Z,102130.17
2019-02-27T08:11:37.280Z,102125.82
2019-02-27T08:14:06.663Z,102127.28
2019-02-27T08:16:37.018Z,102127.61
2019-02-27T08:19:08.943Z,102126.55
2019-02-27T08:21:37.612Z,102126.95
2019-02-27T08:24:07.666Z,102123.75
2019-02-27T08:26:37.167Z,102133.05
2019-02-27T08:29:06.783Z,102146.31
2019-02-27T08:31:36.086Z,102141.70
2019-02-27T08:34:05.561Z,102137.46
2019-02-27T08:36:34.868Z,102132.66
2019-02-27T08:39:05.596Z,102136.45
2019-02-27T08:41:34.903Z,102120.27
2019-02-27T08:44:04.276Z,102115.17
2019-02-27T08:46:36.875Z,102111.59
2019-02-27T08:49:05.059Z,102107.75
2019-02-27T08:51:34.339Z,102100.47
2019-02-27T08:54:03.807Z,102099.73
2019-02-27T08:56:33.090Z,102085.80
2019-02-27T08:59:05.041Z,102100.58
2019-02-27T09:01:33.836Z,102095.60
2019-02-27T09:04:03.323Z,102096.82
2019-02-27T09:06:32.723Z,102085.82
2019-02-27T09:09:02.119Z,102076.46
2019-02-27T09:11:31.432Z,102075.27
2019-02-27T09:14:00.724Z,102067.67
2019-02-27T09:16:30.049Z,102061.73
2019-02-27T09:18:59.335Z,102051.09
2019-02-27T09:21:28.695Z,102055.14
2019-02-27T09:23:57.998Z,102054.42
2019-02-27T09:26:27.307Z,102051.23
2019-02-27T09:28:56.610Z,102046.06
2019-02-27T09:31:25.903Z,102051.11
2019-02-27T09:33:55.195Z,102048.38
2019-02-27T09:36:24.577Z,102041.13
2019-02-27T09:38:57.350Z,102038.39
2019-02-27T09:41:24.957Z,102036.00
2019-02-27T09:43:54.315Z,102033.17
2019-02-27T09:46:23.709Z,102034.09
2019-02-27T09:48:52.997Z,102033.82
2019-02-27T09:51:22.910Z,102031.41
2019-02-27T09:53:52.492Z,102027.70
2019-02-27T09:56:21.781Z,102027.95
2019-02-27T09:58:51.082Z,102022.06
2019-02-27T10:01:20.374Z,102014.55
2019-02-27T10:03:51.985Z,102016.14
2019-02-27T10:06:21.236Z,102008.97
2019-02-27T10:08:50.530Z,102000.38
2019-02-27T10:11:22.223Z,101992.48
2019-02-27T10:13:50.833Z,101998.56
2019-02-27T10:16:20.101Z,101994.40
2019-02-27T10:18:49.404Z,101993.33
2019-02-27T10:21:18.683Z,101993.66
2019-02-27T10:23:47.996Z,101985.60
2019-02-27T10:26:19.425Z,101977.53
2019-02-27T10:28:48.296Z,101978.44
2019-02-27T10:31:17.666Z,101971.30
2019-02-27T10:33:46.947Z,101965.36
2019-02-27T10:36:16.469Z,101964.12
2019-02-27T10:38:45.734Z,101957.47
2019-02-27T10:41:15.210Z,101954.08
2019-02-27T10:43:44.530Z,101944.31
2019-02-27T10:46:13.822Z,101944.16
2019-02-27T10:48:43.109Z,101936.45
2019-02-27T10:51:12.427Z,101939.08
2019-02-27T10:53:41.694Z,101937.28
2019-02-27T10:56:11.008Z,101930.67
2019-02-27T10:58:40.316Z,101918.43
2019-02-27T11:01:09.859Z,101916.72
2019-02-27T11:03:39.150Z,101917.28
2019-02-27T11:06:08.440Z,101913.39
2019-02-27T11:08:37.767Z,101905.15
2019-02-27T11:11:08.654Z,101900.80
2019-02-27T11:13:38.347Z,101899.41
2019-02-27T11:16:07.580Z,101900.55
2019-02-27T11:18:37.183Z,101900.34
2019-02-27T11:21:06.592Z,101891.72
2019-02-27T11:23:35.889Z,101885.65
2019-02-27T11:26:05.250Z,101883.86
2019-02-27T11:28:34.566Z,101874.02
2019-02-27T11:31:03.924Z,101882.05
2019-02-27T11:33:33.556Z,101879.34
2019-02-27T11:36:05.509Z,101870.23
2019-02-27T11:38:34.243Z,101865.52
2019-02-27T11:41:03.569Z,101859.52
2019-02-27T11:43:32.838Z,101856.16
2019-02-27T11:46:02.223Z,101843.67
2019-02-27T11:48:31.569Z,101834.36
2019-02-27T11:51:00.888Z,101830.62
2019-02-27T11:53:30.188Z,101830.62
2019-02-27T11:55:59.799Z,101827.02
2019-02-27T11:58:29.108Z,101826.62
2019-02-27T12:00:58.441Z,101820.05
2019-02-27T12:03:27.772Z,101810.16
2019-02-27T12:05:57.057Z,101804.81
2019-02-27T12:08:26.868Z,101803.30
2019-02-27T12:10:56.656Z,101805.28
2019-02-27T12:13:26.309Z,101793.42
2019-02-27T12:15:55.684Z,101784.47
2019-02-27T12:18:25.109Z,101779.77
2019-02-27T12:20:54.406Z,101773.14
2019-02-27T12:23:23.818Z,101768.78
2019-02-27T12:25:53.091Z,101764.64
2019-02-27T12:28:23.288Z,101759.37
2019-02-27T12:30:52.644Z,101756.08
2019-02-27T12:33:21.995Z,101758.56
2019-02-27T12:35:51.308Z,101749.50
2019-02-27T12:38:20.677Z,101746.11
2019-02-27T12:40:50.045Z,101735.44
2019-02-27T12:43:19.351Z,101723.80
2019-02-27T12:45:48.656Z,101721.67
2019-02-27T12:48:17.959Z,101716.72
2019-02-27T12:50:47.278Z,101705.48
2019-02-27T12:53:20.744Z,101713.96
2019-02-27T12:55:47.555Z,101702.64
2019-02-27T12:58:16.839Z,101697.40
2019-02-27T13:00:46.219Z,101696.34
2019-02-27T13:03:15.550Z,101704.30
2019-02-27T13:05:44.830Z,101691.19
2019-02-27T13:08:16.410Z,101686.63
2019-02-27T13:10:45.207Z,101690.64
2019-02-27T13:13:14.486Z,101689.93
2019-02-27T13:15:43.808Z,101674.05
2019-02-27T13:18:13.334Z,101669.14
2019-02-27T13:20:42.994Z,101657.74
2019-02-27T13:23:13.777Z,101656.84
2019-02-27T13:25:43.094Z,101652.33
2019-02-27T13:28:14.567Z,101647.09
2019-02-27T13:30:43.453Z,101644.48
2019-02-27T13:33:12.847Z,101637.41
2019-02-27T13:35:42.527Z,101633.52
2019-02-27T13:38:11.806Z,101635.11
2019-02-27T13:40:41.117Z,101634.70
2019-02-27T13:43:10.769Z,101632.45
2019-02-27T13:45:40.080Z,101629.30
2019-02-27T13:48:09.389Z,101629.84
2019-02-27T13:50:38.723Z,101622.30
2019-02-27T13:53:08.036Z,101620.69
2019-02-27T13:55:37.400Z,101616.66
2019-02-27T13:58:06.811Z,101617.16
2019-02-27T14:00:38.337Z,101611.95
2019-02-27T14:03:12.070Z,101611.30
2019-02-27T14:05:39.429Z,101604.90
2019-02-27T14:08:09.623Z,101601.00
2019-02-27T14:10:38.898Z,101602.62
2019-02-27T14:13:09.784Z,101595.86
2019-02-27T14:15:39.569Z,101590.72
2019-02-27T14:18:08.879Z,101584.62
2019-02-27T14:20:38.287Z,101588.70
2019-02-27T14:23:08.226Z,101580.99
2019-02-27T14:25:37.597Z,101590.32
2019-02-27T14:28:07.347Z,101585.27
2019-02-27T14:30:48.800Z,101579.98
2019-02-27T14:33:19.335Z,101577.19
2019-02-27T14:35:49.114Z,101572.23
2019-02-27T14:38:21.910Z,101571.81
2019-02-27T14:40:49.804Z,101570.55
2019-02-27T14:43:19.128Z,101563.64
2019-02-27T14:45:48.407Z,101561.97
2019-02-27T14:48:18.156Z,101556.01
2019-02-27T14:50:49.045Z,101547.67
2019-02-27T14:53:19.780Z,101544.88
2019-02-27T14:55:49.388Z,101543.98
2019-02-27T14:58:18.706Z,101537.83
2019-02-27T15:00:48.050Z,101530.30
2019-02-27T15:03:17.366Z,101524.93
2019-02-27T15:05:46.640Z,101526.44
2019-02-27T15:08:15.983Z,101523.43
2019-02-27T15:10:45.247Z,101517.19
2019-02-27T15:13:14.560Z,101514.34
2019-02-27T15:15:44.450Z,101508.09
2019-02-27T15:18:15.647Z,101504.70
2019-02-27T15:20:44.966Z,101508.89
2019-02-27T15:23:14.277Z,101504.37
2019-02-27T15:25:43.573Z,101499.70
2019-02-27T15:28:12.884Z,101496.33
2019-02-27T15:30:46.373Z,101498.00
2019-02-27T15:33:13.218Z,101453.53
2019-02-27T15:35:42.738Z,101487.73
2019-02-27T15:38:12.462Z,101446.77
2019-02-27T15:40:42.218Z,101480.77
2019-02-27T15:43:11.769Z,101476.53
2019-02-27T15:45:47.538Z,101475.72
2019-02-27T15:48:12.545Z,101472.50
2019-02-27T15:50:42.308Z,101462.00
2019-02-27T15:53:14.579Z,101461.06
2019-02-27T15:55:42.619Z,101459.42
2019-02-27T15:58:12.010Z,101452.91
2019-02-27T16:00:41.373Z,101452.05
2019-02-27T16:03:11.993Z,101451.56
2019-02-27T16:05:41.670Z,101453.56
2019-02-27T16:08:11.140Z,101451.59
2019-02-27T16:10:43.723Z,101450.44
2019-02-27T16:13:11.419Z,101448.23
2019-02-27T16:15:40.801Z,101454.97
2019-02-27T16:18:10.063Z,101441.73
2019-02-27T16:20:39.362Z,101435.20
2019-02-27T16:23:08.846Z,101434.05
2019-02-27T16:25:38.599Z,101430.34
2019-02-27T16:28:11.330Z,101428.17
2019-02-27T16:30:39.024Z,101426.66
2019-02-27T16:33:08.331Z,101425.14
2019-02-27T16:35:41.548Z,101427.34
2019-02-27T16:38:08.695Z,101426.68
2019-02-27T16:40:37.995Z,101437.41
2019-02-27T16:43:10.350Z,101430.64
2019-02-27T16:45:39.382Z,101427.12
2019-02-27T16:48:11.097Z,101426.45
2019-02-27T16:50:39.727Z,101418.73
2019-02-27T16:53:09.093Z,101418.86
2019-02-27T16:55:39.606Z,101418.66
2019-02-27T16:58:09.350Z,101417.29
2019-02-27T17:00:39.051Z,101417.72
2019-02-27T17:03:12.935Z,101415.95
2019-02-27T17:05:40.263Z,101406.97
2019-02-27T17:08:10.683Z,101406.25
2019-02-27T17:10:40.887Z,101410.84
2019-02-27T17:13:14.414Z,101405.50
2019-02-27T17:15:41.440Z,101404.05
2019-02-27T17:18:12.808Z,101406.72
2019-02-27T17:20:45.823Z,101402.85
2019-02-27T17:23:13.467Z,101396.55
2019-02-27T17:25:42.912Z,101396.68
2019-02-27T17:28:12.344Z,101392.39
2019-02-27T17:30:41.675Z,101392.09
2019-02-27T17:33:11.068Z,101382.81
2019-02-27T17:35:40.369Z,101387.53
2019-02-27T17:38:10.912Z,101387.95
2019-02-27T17:40:42.678Z,101385.80
2019-02-27T17:43:12.086Z,101385.78
2019-02-27T17:45:44.265Z,101378.39
2019-02-27T17:48:13.223Z,101383.73
2019-02-27T17:50:42.574Z,101368.45
2019-02-27T17:53:11.866Z,101369.92
2019-02-27T17:55:42.489Z,101367.35
2019-02-27T17:58:12.003Z,101358.19
2019-02-27T18:00:50.038Z,101362.20
2019-02-27T18:03:17.147Z,101360.88
2019-02-27T18:05:46.543Z,101357.46
2019-02-27T18:08:17.069Z,101359.09
2019-02-27T18:10:46.774Z,101358.89
2019-02-27T18:13:16.065Z,101354.51
2019-02-27T18:15:45.365Z,101355.18
2019-02-27T18:18:14.903Z,101348.13
2019-02-27T18:20:44.222Z,101353.58
2019-02-27T18:23:13.813Z,101352.79
2019-02-27T18:25:43.281Z,101350.69
2019-02-27T18:28:12.564Z,101350.12
2019-02-27T18:30:42.747Z,101350.36
2019-02-27T18:33:14.276Z,101338.93
2019-02-27T18:35:46.054Z,101335.73
2019-02-27T18:38:15.461Z,101345.51
2019-02-27T18:40:45.013Z,101343.85
2019-02-27T18:43:14.602Z,101345.83
2019-02-27T18:45:44.285Z,101348.98
2019-02-27T18:48:15.141Z,101345.22
2019-02-27T18:50:44.732Z,101337.67
2019-02-27T18:53:14.261Z,101345.34
2019-02-27T18:55:44.142Z,101341.13
2019-02-27T18:58:13.632Z,101342.17
2019-02-27T19:00:43.051Z,101341.54
2019-02-27T19:03:13.031Z,101282.48
2019-02-27T19:05:42.474Z,101326.94
2019-02-27T19:08:11.918Z,101326.02
2019-02-27T19:10:42.533Z,101329.64
2019-02-27T19:13:12.386Z,101328.36
2019-02-27T19:15:45.457Z,101324.18
2019-02-27T19:18:13.139Z,101325.13
2019-02-27T19:20:44.876Z,101323.01
2019-02-27T19:23:17.136Z,101318.89
2019-02-27T19:25:45.967Z,101327.71
2019-02-27T19:28:15.278Z,101323.88
2019-02-27T19:30:44.999Z,101325.95
2019-02-27T19:33:14.492Z,101324.21
2019-02-27T19:35:46.583Z,101325.36
2019-02-27T19:38:16.013Z,101329.91
2019-02-27T19:40:45.700Z,101329.00
2019-02-27T19:43:15.230Z,101327.91
2019-02-27T19:45:44.911Z,101329.63
2019-02-27T19:48:14.495Z,101328.28
2019-02-27T19:50:46.195Z,101320.11
2019-02-27T19:53:15.137Z,101320.58
2019-02-27T19:55:44.619Z,101314.20
2019-02-27T19:58:18.167Z,101316.72
2019-02-27T20:00:48.272Z,101321.66
2019-02-27T20:03:17.148Z,101314.09
2019-02-27T20:05:46.747Z,101311.05
2019-02-27T20:08:16.203Z,101314.55
2019-02-27T20:10:46.011Z,101310.20
2019-02-27T20:13:15.741Z,101312.61
2019-02-27T20:15:45.702Z,101308.84
2019-02-27T20:18:16.569Z,101304.55
2019-02-27T20:20:46.001Z,101297.67
2019-02-27T20:23:15.932Z,101298.50
2019-02-27T20:25:45.266Z,101297.90
2019-02-27T20:28:14.585Z,101288.82
2019-02-27T20:30:44.123Z,101291.37
2019-02-27T20:33:13.680Z,101277.29
2019-02-27T20:35:43.160Z,101278.88
2019-02-27T20:38:15.984Z,101276.94
2019-02-27T20:40:44.053Z,101274.89
2019-02-27T20:43:13.458Z,101268.91
2019-02-27T20:45:43.619Z,101259.95
2019-02-27T20:48:13.234Z,101257.83
2019-02-27T20:50:49.411Z,101259.52
2019-02-27T20:53:20.954Z,101246.31
2019-02-27T20:55:49.893Z,101252.01
2019-02-27T20:58:22.079Z,101248.73
2019-02-27T21:00:51.139Z,101245.33
2019-02-27T21:03:21.203Z,101245.67
2019-02-27T21:05:50.508Z,101251.02
2019-02-27T21:08:20.360Z,101245.56
2019-02-27T21:10:54.730Z,101243.33
2019-02-27T21:13:21.608Z,101250.78
2019-02-27T21:15:51.067Z,101253.27
2019-02-27T21:18:20.435Z,101254.03
2019-02-27T21:20:50.907Z,101254.03
2019-02-27T21:23:20.839Z,101263.80
2019-02-27T21:25:50.338Z,101259.73
2019-02-27T21:28:21.313Z,101259.73
2019-02-27T21:30:52.399Z,101261.75
2019-02-27T21:33:22.601Z,101261.39
2019-02-27T21:35:52.222Z,101266.28
2019-02-27T21:38:21.949Z,101265.74
2019-02-27T21:40:51.397Z,101264.62
2019-02-27T21:43:25.202Z,101274.31
2019-02-27T21:45:52.063Z,101276.27
2019-02-27T21:48:23.558Z,101274.35
2019-02-27T21:50:52.765Z,101268.65
2019-02-27T21:53:22.154Z,101271.56
2019-02-27T21:55:52.046Z,101276.37
2019-02-27T21:58:21.601Z,101285.27
2019-02-27T22:00:50.906Z,101282.06
2019-02-27T22:03:20.314Z,101279.78
2019-02-27T22:05:53.007Z,101287.18
2019-02-27T22:08:21.174Z,101290.46
2019-02-27T22:10:53.710Z,101295.95
2019-02-27T22:13:28.945Z,101291.89
2019-02-27T22:15:55.901Z,101295.88
2019-02-27T22:18:24.216Z,101288.00
2019-02-27T22:20:53.809Z,101282.30
2019-02-27T22:23:23.083Z,101288.92
2019-02-27T22:25:52.379Z,101283.28
2019-02-27T22:28:21.647Z,101288.24
2019-02-27T22:30:51.043Z,101286.44
2019-02-27T22:33:23.056Z,101279.97
2019-02-27T22:35:51.614Z,101275.53
2019-02-27T22:38:25.815Z,101276.88
2019-02-27T22:40:52.068Z,101276.05
2019-02-27T22:43:21.982Z,101263.84
2019-02-27T22:45:52.341Z,101263.84
2019-02-27T22:48:21.625Z,101262.88
2019-02-27T22:50:51.031Z,101267.66
2019-02-27T22:53:20.740Z,101264.80
2019-02-27T22:55:50.131Z,101259.22
2019-02-27T22:58:19.783Z,101261.73
2019-02-27T23:01:02.126Z,101260.84
2019-02-27T23:03:48.965Z,101263.31
2019-02-27T23:06:18.392Z,101263.95
2019-02-27T23:08:48.956Z,101265.69
2019-02-27T23:11:18.694Z,101265.69
2019-02-27T23:13:48.815Z,101253.56
2019-02-27T23:16:19.408Z,101254.42
2019-02-27T23:18:48.769Z,101258.80
2019-02-27T23:21:18.682Z,101256.66
2019-02-27T23:23:48.017Z,101248.95
2019-02-27T23:26:20.146Z,101245.94
2019-02-27T23:28:48.466Z,101245.94
2019-02-27T23:31:22.448Z,101241.71
2019-02-27T23:33:48.804Z,101252.97
2019-02-27T23:36:18.150Z,101244.33
2019-02-27T23:38:47.452Z,101244.33
2019-02-27T23:41:16.732Z,101246.61
2019-02-27T23:43:46.010Z,101242.00
2019-02-27T23:46:15.660Z,101243.23
2019-02-27T23:48:46.659Z,101243.23
2019-02-27T23:51:16.908Z,101248.39
2019-02-27T23:53:46.524Z,101242.77
2019-02-27T23:56:19.347Z,101241.73
2019-02-27T23:58:46.826Z,101246.91
